Time,TemperatureF,DewpointF,PressureIn,WindDirection,WindDirectionDegrees,WindSpeedMPH,WindSpeedGustMPH,Humidity,HourlyPrecipIn,Conditions,Clouds,dailyrainin,SoftwareType,DateUTC
2013-12-24 00:03:00,26.2,17.5,29.88,North,0,0.0,-999.0,69,0.00,,,-99.99,,2013-12-24 09:03:00,
2013-12-24 00:08:00,25.9,17.7,29.88,North,0,0.0,-999.0,70,0.00,,,-99.99,,2013-12-24 09:08:00,
2013-12-24 00:13:00,25.9,18.0,29.87,North,0,0.0,-999.0,71,0.00,,,-99.99,,2013-12-24 09:13:00,
2013-12-24 00:18:00,26.3,18.3,29.87,North,0,0.0,-999.0,71,0.00,,,-99.99,,2013-12-24 09:18:00,
2013-12-24 00:23:00,26.2,18.5,29.88,North,0,0.0,-999.0,72,0.00,,,-99.99,,2013-12-24 09:23:00,
2013-12-24 00:28:00,26.6,19.2,29.87,North,0,0.0,-999.0,73,0.00,,,-99.99,,2013-12-24 09:28:00,
2013-12-24 00:33:00,27.5,19.9,29.87,North,0,0.0,-999.0,72,0.00,,,-99.99,,2013-12-24 09:33:00,
2013-12-24 00:38:00,27.6,19.9,29.86,North,0,0.0,-999.0,72,0.00,,,-99.99,,2013-12-24 09:38:00,
2013-12-24 00:43:00,28.2,20.0,29.86,North,0,0.0,-999.0,70,0.00,,,-99.99,,2013-12-24 09:43:00,
2013-12-24 00:48:00,28.7,20.2,29.86,North,0,0.0,-999.0,70,0.00,,,-99.99,,2013-12-24 09:48:00,
2013-12-24 00:53:00,29.0,20.1,29.86,North,0,0.0,-999.0,69,0.00,,,-99.99,,2013-12-24 09:53:00,
2013-12-24 00:58:00,28.9,20.1,29.86,North,0,0.0,-999.0,69,0.00,,,-99.99,,2013-12-24 09:58:00,
2013-12-24 01:03:00,29.2,19.9,29.87,North,0,0.0,-999.0,67,0.00,,,-99.99,,2013-12-24 10:03:00,
2013-12-24 01:08:00,29.4,20.1,29.86,North,0,0.0,-999.0,67,0.00,,,-99.99,,2013-12-24 10:08:00,
2013-12-24 01:13:00,29.6,20.0,29.86,North,0,0.0,-999.0,67,0.00,,,-99.99,,2013-12-24 10:13:00,
2013-12-24 01:18:00,29.7,20.7,29.86,North,0,0.0,-999.0,68,0.00,,,-99.99,,2013-12-24 10:18:00,
2013-12-24 01:23:00,29.7,20.5,29.86,North,0,0.0,-999.0,68,0.00,,,-99.99,,2013-12-24 10:23:00,
2013-12-24 01:28:00,29.5,20.1,29.86,North,0,0.0,-999.0,67,0.00,,,-99.99,,2013-12-24 10:28:00,
2013-12-24 01:33:00,30.0,20.5,29.86,North,0,0.0,-999.0,67,0.00,,,-99.99,,2013-12-24 10:33:00,
2013-12-24 01:38:00,30.0,20.4,29.85,North,0,0.0,-999.0,66,0.00,,,-99.99,,2013-12-24 10:38:00,
2013-12-24 01:43:00,30.0,20.1,29.85,North,0,0.0,-999.0,66,0.00,,,-99.99,,2013-12-24 10:43:00,
2013-12-24 01:48:00,30.1,20.6,29.85,North,0,0.0,-999.0,67,0.00,,,-99.99,,2013-12-24 10:48:00,
2013-12-24 01:53:00,30.2,20.5,29.85,North,0,0.0,-999.0,66,0.00,,,-99.99,,2013-12-24 10:53:00,
2013-12-24 01:58:00,30.1,20.6,29.85,North,0,0.0,-999.0,67,0.00,,,-99.99,,2013-12-24 10:58:00,
2013-12-24 02:03:00,30.1,20.4,29.85,North,0,0.0,-999.0,66,0.00,,,-99.99,,2013-12-24 11:03:00,
2013-12-24 02:08:00,30.5,20.3,29.85,North,0,0.0,-999.0,65,0.00,,,-99.99,,2013-12-24 11:08:00,
2013-12-24 02:13:00,30.7,20.6,29.85,North,0,0.0,-999.0,65,0.00,,,-99.99,,2013-12-24 11:13:00,
2013-12-24 02:18:00,30.6,19.7,29.84,North,0,0.0,-999.0,63,0.00,,,-99.99,,2013-12-24 11:18:00,
2013-12-24 02:23:00,30.7,20.0,29.84,North,0,0.0,-999.0,64,0.00,,,-99.99,,2013-12-24 11:23:00,
2013-12-24 02:28:00,30.7,20.1,29.84,North,0,0.0,-999.0,64,0.00,,,-99.99,,2013-12-24 11:28:00,
2013-12-24 02:33:00,30.8,20.6,29.84,North,0,0.0,-999.0,65,0.00,,,-99.99,,2013-12-24 11:33:00,
2013-12-24 02:38:00,30.9,19.6,29.83,North,0,0.0,-999.0,62,0.00,,,-99.99,,2013-12-24 11:38:00,
2013-12-24 02:43:00,31.1,20.0,29.84,North,0,0.0,-999.0,62,0.00,,,-99.99,,2013-12-24 11:43:00,
2013-12-24 02:48:00,31.1,20.3,29.84,North,0,0.0,-999.0,63,0.00,,,-99.99,,2013-12-24 11:48:00,
2013-12-24 02:53:00,31.2,20.5,29.83,North,0,0.0,-999.0,64,0.00,,,-99.99,,2013-12-24 11:53:00,
2013-12-24 02:58:00,31.1,20.4,29.83,North,0,0.0,-999.0,64,0.00,,,-99.99,,2013-12-24 11:58:00,
2013-12-24 03:03:00,31.2,20.8,29.83,North,0,0.0,-999.0,64,0.00,,,-99.99,,2013-12-24 12:03:00,
2013-12-24 03:08:00,31.3,20.9,29.82,North,0,0.0,-999.0,65,0.00,,,-99.99,,2013-12-24 12:08:00,
2013-12-24 03:13:00,31.7,20.8,29.82,North,0,0.0,-999.0,63,0.00,,,-99.99,,2013-12-24 12:13:00,
2013-12-24 03:18:00,31.5,20.7,29.82,North,0,0.0,-999.0,63,0.00,,,-99.99,,2013-12-24 12:18:00,
2013-12-24 03:23:00,31.4,20.0,29.82,North,0,0.0,-999.0,62,0.00,,,-99.99,,2013-12-24 12:23:00,
2013-12-24 03:28:00,31.4,20.0,29.82,North,0,0.0,-999.0,62,0.00,,,-99.99,,2013-12-24 12:28:00,
2013-12-24 03:33:00,31.5,20.5,29.81,North,0,0.0,-999.0,63,0.00,,,-99.99,,2013-12-24 12:33:00,
2013-12-24 03:38:00,31.4,21.0,29.81,North,0,0.0,-999.0,64,0.00,,,-99.99,,2013-12-24 12:38:00,
2013-12-24 03:43:00,31.5,21.6,29.80,North,0,0.0,-999.0,66,0.00,,,-99.99,,2013-12-24 12:43:00,
2013-12-24 03:48:00,31.5,21.5,29.80,North,0,0.0,-999.0,65,0.00,,,-99.99,,2013-12-24 12:48:00,
2013-12-24 03:53:00,31.5,21.5,29.80,North,0,0.0,-999.0,66,0.00,,,-99.99,,2013-12-24 12:53:00,
2013-12-24 03:58:00,31.7,21.5,29.80,North,0,0.0,-999.0,65,0.00,,,-99.99,,2013-12-24 12:58:00,
2013-12-24 04:03:00,31.6,21.2,29.80,North,0,0.0,-999.0,65,0.00,,,-99.99,,2013-12-24 13:03:00,
2013-12-24 04:08:00,31.6,20.9,29.79,North,0,0.0,-999.0,64,0.00,,,-99.99,,2013-12-24 13:08:00,
2013-12-24 04:13:00,31.7,20.6,29.79,North,0,0.0,-999.0,63,0.00,,,-99.99,,2013-12-24 13:13:00,
2013-12-24 04:18:00,31.9,20.8,29.79,North,0,0.0,-999.0,63,0.00,,,-99.99,,2013-12-24 13:18:00,
2013-12-24 04:23:00,31.6,19.9,29.78,North,0,0.0,-999.0,61,0.00,,,-99.99,,2013-12-24 13:23:00,
2013-12-24 04:28:00,31.7,20.5,29.78,North,0,0.0,-999.0,62,0.00,,,-99.99,,2013-12-24 13:28:00,
2013-12-24 04:33:00,31.8,20.6,29.78,North,0,0.0,-999.0,62,0.00,,,-99.99,,2013-12-24 13:33:00,
2013-12-24 04:38:00,31.6,21.6,29.78,North,0,0.0,-999.0,65,0.00,,,-99.99,,2013-12-24 13:38:00,
2013-12-24 04:43:00,31.7,20.9,29.77,North,0,0.0,-999.0,63,0.00,,,-99.99,,2013-12-24 13:43:00,
2013-12-24 04:48:00,32.0,21.4,29.77,North,0,0.0,-999.0,64,0.00,,,-99.99,,2013-12-24 13:48:00,
2013-12-24 04:53:00,32.0,21.6,29.77,North,0,0.0,-999.0,65,0.00,,,-99.99,,2013-12-24 13:53:00,
2013-12-24 04:58:00,32.2,22.1,29.77,North,0,0.0,-999.0,65,0.00,,,-99.99,,2013-12-24 13:58:00,
2013-12-24 05:03:00,32.4,22.2,29.77,North,0,0.0,-999.0,65,0.00,,,-99.99,,2013-12-24 14:03:00,
2013-12-24 05:08:00,32.4,22.3,29.77,North,0,0.0,-999.0,65,0.00,,,-99.99,,2013-12-24 14:08:00,
2013-12-24 05:13:00,32.5,22.6,29.77,North,0,0.0,-999.0,66,0.00,,,-99.99,,2013-12-24 14:13:00,
2013-12-24 05:18:00,32.7,22.7,29.76,North,0,0.0,-999.0,66,0.00,,,-99.99,,2013-12-24 14:18:00,
2013-12-24 05:23:00,32.9,23.1,29.76,North,0,0.0,-999.0,66,0.00,,,-99.99,,2013-12-24 14:23:00,
2013-12-24 05:28:00,32.7,23.1,29.76,North,0,0.0,-999.0,67,0.00,,,-99.99,,2013-12-24 14:28:00,
2013-12-24 05:33:00,32.8,23.4,29.76,North,0,0.0,-999.0,67,0.00,,,-99.99,,2013-12-24 14:33:00,
2013-12-24 05:38:00,32.6,23.5,29.76,North,0,0.0,-999.0,68,0.00,,,-99.99,,2013-12-24 14:38:00,
2013-12-24 05:43:00,32.8,23.2,29.76,North,0,0.0,-999.0,67,0.00,,,-99.99,,2013-12-24 14:43:00,
2013-12-24 05:48:00,33.2,23.3,29.76,North,0,0.0,-999.0,66,0.00,,,-99.99,,2013-12-24 14:48:00,
2013-12-24 05:53:00,33.0,23.2,29.75,North,0,0.0,-999.0,66,0.00,,,-99.99,,2013-12-24 14:53:00,
2013-12-24 05:58:00,33.1,23.8,29.75,North,0,0.0,-999.0,68,0.00,,,-99.99,,2013-12-24 14:58:00,
2013-12-24 06:03:00,33.1,23.6,29.73,North,0,0.0,-999.0,67,0.00,,,-99.99,,2013-12-24 15:03:00,
2013-12-24 06:08:00,33.2,24.0,29.74,North,0,0.0,-999.0,68,0.00,,,-99.99,,2013-12-24 15:08:00,
2013-12-24 06:13:00,33.3,23.9,29.73,North,0,0.0,-999.0,67,0.00,,,-99.99,,2013-12-24 15:13:00,
2013-12-24 06:18:00,33.4,24.1,29.74,North,0,0.0,-999.0,68,0.00,,,-99.99,,2013-12-24 15:18:00,
2013-12-24 06:23:00,33.5,24.5,29.74,North,0,0.0,-999.0,69,0.00,,,-99.99,,2013-12-24 15:23:00,
2013-12-24 06:28:00,33.5,24.6,29.74,North,0,0.0,-999.0,69,0.00,,,-99.99,,2013-12-24 15:28:00,
2013-12-24 06:33:00,33.6,24.2,29.73,North,0,0.0,-999.0,68,0.00,,,-99.99,,2013-12-24 15:33:00,
2013-12-24 06:38:00,33.9,24.4,29.73,North,0,0.0,-999.0,67,0.00,,,-99.99,,2013-12-24 15:38:00,
2013-12-24 06:43:00,34.0,24.8,29.73,North,0,0.0,-999.0,68,0.00,,,-99.99,,2013-12-24 15:43:00,
2013-12-24 06:48:00,34.1,25.0,29.73,North,0,0.0,-999.0,69,0.00,,,-99.99,,2013-12-24 15:48:00,
2013-12-24 06:53:00,34.0,24.3,29.73,North,0,0.0,-999.0,67,0.00,,,-99.99,,2013-12-24 15:53:00,
2013-12-24 06:58:00,34.1,24.2,29.72,North,0,0.0,-999.0,66,0.00,,,-99.99,,2013-12-24 15:58:00,
2013-12-24 07:03:00,34.0,24.5,29.72,North,0,0.0,-999.0,67,0.00,,,-99.99,,2013-12-24 16:03:00,
2013-12-24 07:08:00,34.3,24.7,29.72,North,0,0.0,-999.0,67,0.00,,,-99.99,,2013-12-24 16:08:00,
2013-12-24 07:13:00,34.3,24.7,29.71,North,0,0.0,-999.0,67,0.00,,,-99.99,,2013-12-24 16:13:00,
2013-12-24 07:18:00,34.3,25.0,29.71,North,0,0.0,-999.0,68,0.00,,,-99.99,,2013-12-24 16:18:00,
2013-12-24 07:23:00,34.5,25.5,29.72,North,0,0.0,-999.0,69,0.00,,,-99.99,,2013-12-24 16:23:00,
2013-12-24 07:28:00,34.3,25.3,29.70,North,0,0.0,-999.0,69,0.00,,,-99.99,,2013-12-24 16:28:00,
2013-12-24 07:33:00,34.2,25.6,29.70,North,0,0.0,-999.0,70,0.00,,,-99.99,,2013-12-24 16:33:00,
2013-12-24 07:38:00,34.6,25.8,29.69,North,0,0.0,-999.0,69,0.00,,,-99.99,,2013-12-24 16:38:00,
2013-12-24 07:43:00,34.4,25.7,29.70,North,0,0.0,-999.0,69,0.00,,,-99.99,,2013-12-24 16:43:00,
2013-12-24 07:48:00,34.8,25.7,29.68,North,0,0.0,-999.0,68,0.00,,,-99.99,,2013-12-24 16:48:00,
2013-12-24 07:53:00,34.7,26.2,29.69,North,0,0.0,-999.0,70,0.00,,,-99.99,,2013-12-24 16:53:00,
2013-12-24 07:58:00,34.6,26.0,29.69,North,0,0.0,-999.0,70,0.00,,,-99.99,,2013-12-24 16:58:00,
2013-12-24 08:03:00,34.8,26.5,29.69,North,0,0.0,-999.0,71,0.00,,,-99.99,,2013-12-24 17:03:00,
2013-12-24 08:08:00,34.7,26.6,29.68,North,0,0.0,-999.0,71,0.00,,,-99.99,,2013-12-24 17:08:00,
2013-12-24 08:13:00,34.7,26.8,29.69,North,0,0.0,-999.0,72,0.00,,,-99.99,,2013-12-24 17:13:00,
2013-12-24 08:18:00,34.8,27.1,29.67,North,0,0.0,-999.0,73,0.00,,,-99.99,,2013-12-24 17:18:00,
2013-12-24 08:23:00,34.7,27.2,29.67,North,0,0.0,-999.0,73,0.00,,,-99.99,,2013-12-24 17:23:00,
2013-12-24 08:28:00,34.8,27.6,29.67,North,0,0.0,-999.0,74,0.00,,,-99.99,,2013-12-24 17:28:00,
2013-12-24 08:33:00,34.6,27.8,29.66,North,0,0.0,-999.0,75,0.00,,,-99.99,,2013-12-24 17:33:00,
2013-12-24 08:38:00,34.9,28.4,29.66,North,0,0.0,-999.0,77,0.00,,,-99.99,,2013-12-24 17:38:00,
2013-12-24 08:43:00,34.5,28.5,29.67,North,0,0.0,-999.0,78,0.00,,,-99.99,,2013-12-24 17:43:00,
2013-12-24 08:48:00,34.3,29.0,29.67,North,0,0.0,-999.0,80,0.00,,,-99.99,,2013-12-24 17:48:00,
2013-12-24 08:53:00,34.1,29.5,29.66,North,0,0.0,-999.0,83,0.00,,,-99.99,,2013-12-24 17:53:00,
2013-12-24 08:58:00,33.7,29.7,29.66,North,0,0.0,-999.0,85,0.00,,,-99.99,,2013-12-24 17:58:00,
2013-12-24 09:03:00,33.5,30.0,29.66,North,0,0.0,-999.0,86,0.00,,,-99.99,,2013-12-24 18:03:00,
2013-12-24 09:08:00,33.4,30.4,29.65,North,0,0.0,-999.0,88,0.00,,,-99.99,,2013-12-24 18:08:00,
2013-12-24 09:13:00,33.2,30.5,29.65,North,0,0.0,-999.0,89,0.00,,,-99.99,,2013-12-24 18:13:00,
2013-12-24 09:18:00,33.3,30.9,29.65,North,0,0.0,-999.0,90,0.00,,,-99.99,,2013-12-24 18:18:00,
2013-12-24 09:23:00,33.0,30.8,29.65,North,0,0.0,-999.0,91,0.00,,,-99.99,,2013-12-24 18:23:00,
2013-12-24 09:28:00,33.2,31.1,29.65,North,0,0.0,-999.0,91,0.00,,,-99.99,,2013-12-24 18:28:00,
2013-12-24 09:33:00,33.4,31.5,29.64,North,0,0.0,-999.0,92,0.00,,,-99.99,,2013-12-24 18:33:00,
2013-12-24 09:38:00,33.3,31.4,29.65,North,0,0.0,-999.0,92,0.00,,,-99.99,,2013-12-24 18:38:00,
2013-12-24 09:43:00,33.3,31.4,29.64,North,0,0.0,-999.0,92,0.00,,,-99.99,,2013-12-24 18:43:00,
2013-12-24 09:48:00,33.5,31.6,29.64,North,0,0.0,-999.0,92,0.00,,,-99.99,,2013-12-24 18:48:00,
2013-12-24 09:53:00,33.5,31.7,29.65,North,0,0.0,-999.0,93,0.00,,,-99.99,,2013-12-24 18:53:00,
2013-12-24 09:58:00,33.5,31.7,29.64,North,0,0.0,-999.0,92,0.00,,,-99.99,,2013-12-24 18:58:00,
2013-12-24 10:03:00,33.6,31.7,29.64,North,0,0.0,-999.0,92,0.00,,,-99.99,,2013-12-24 19:03:00,
2013-12-24 10:08:00,33.5,31.6,29.63,North,0,0.0,-999.0,92,0.00,,,-99.99,,2013-12-24 19:08:00,
2013-12-24 10:13:00,33.5,31.5,29.63,North,0,0.0,-999.0,92,0.00,,,-99.99,,2013-12-24 19:13:00,
2013-12-24 10:18:00,33.4,31.5,29.64,North,0,0.0,-999.0,92,0.00,,,-99.99,,2013-12-24 19:18:00,
2013-12-24 10:23:00,33.2,31.4,29.63,North,0,0.0,-999.0,92,0.00,,,-99.99,,2013-12-24 19:23:00,
2013-12-24 10:28:00,33.3,31.6,29.63,North,0,0.0,-999.0,93,0.00,,,-99.99,,2013-12-24 19:28:00,
2013-12-24 10:33:00,32.9,31.3,29.64,North,0,0.0,-999.0,93,0.00,,,-99.99,,2013-12-24 19:33:00,
2013-12-24 10:38:00,32.8,31.2,29.63,North,0,0.0,-999.0,93,0.00,,,-99.99,,2013-12-24 19:38:00,
2013-12-24 10:43:00,32.8,31.2,29.63,North,0,0.0,-999.0,93,0.00,,,-99.99,,2013-12-24 19:43:00,
2013-12-24 10:48:00,32.5,31.0,29.63,North,0,0.0,-999.0,94,0.00,,,-99.99,,2013-12-24 19:48:00,
2013-12-24 10:53:00,32.6,31.2,29.62,North,0,0.0,-999.0,94,0.00,,,-99.99,,2013-12-24 19:53:00,
2013-12-24 10:58:00,32.5,31.2,29.62,North,0,0.0,-999.0,94,0.00,,,-99.99,,2013-12-24 19:58:00,
2013-12-24 11:03:00,32.6,31.3,29.62,North,0,0.0,-999.0,94,0.00,,,-99.99,,2013-12-24 20:03:00,
2013-12-24 11:08:00,32.5,31.2,29.63,North,0,0.0,-999.0,94,0.00,,,-99.99,,2013-12-24 20:08:00,
2013-12-24 11:13:00,32.7,31.4,29.62,North,0,0.0,-999.0,94,0.00,,,-99.99,,2013-12-24 20:13:00,
2013-12-24 11:18:00,32.2,30.9,29.62,North,0,0.0,-999.0,94,0.00,,,-99.99,,2013-12-24 20:18:00,
2013-12-24 11:23:00,32.1,30.9,29.61,North,0,0.0,-999.0,95,0.00,,,-99.99,,2013-12-24 20:23:00,
2013-12-24 11:28:00,32.4,31.2,29.62,North,0,0.0,-999.0,95,0.00,,,-99.99,,2013-12-24 20:28:00,
2013-12-24 11:33:00,32.4,31.3,29.60,North,0,0.0,-999.0,95,0.00,,,-99.99,,2013-12-24 20:33:00,
2013-12-24 11:38:00,32.7,31.6,29.60,North,0,0.0,-999.0,95,0.00,,,-99.99,,2013-12-24 20:38:00,
2013-12-24 11:43:00,32.7,31.6,29.60,North,0,0.0,-999.0,95,0.00,,,-99.99,,2013-12-24 20:43:00,
2013-12-24 11:48:00,32.4,31.3,29.60,North,0,0.0,-999.0,95,0.00,,,-99.99,,2013-12-24 20:48:00,
2013-12-24 11:53:00,32.4,31.3,29.60,North,0,0.0,-999.0,95,0.00,,,-99.99,,2013-12-24 20:53:00,
2013-12-24 11:58:00,32.3,31.3,29.59,North,0,0.0,-999.0,95,0.00,,,-99.99,,2013-12-24 20:58:00,
2013-12-24 12:03:00,32.4,31.4,29.59,North,0,0.0,-999.0,96,0.00,,,-99.99,,2013-12-24 21:03:00,
2013-12-24 12:08:00,32.7,31.7,29.59,North,0,0.0,-999.0,96,0.00,,,-99.99,,2013-12-24 21:08:00,
2013-12-24 12:13:00,32.7,31.8,29.58,North,0,0.0,-999.0,96,0.00,,,-99.99,,2013-12-24 21:13:00,
2013-12-24 12:18:00,32.9,32.0,29.57,North,0,0.0,-999.0,96,0.00,,,-99.99,,2013-12-24 21:18:00,
2013-12-24 12:23:00,32.8,31.9,29.56,North,0,0.0,-999.0,96,0.00,,,-99.99,,2013-12-24 21:23:00,
2013-12-24 12:28:00,32.5,31.5,29.58,North,0,0.0,-999.0,95,0.00,,,-99.99,,2013-12-24 21:28:00,
2013-12-24 12:33:00,32.5,31.5,29.57,North,0,0.0,-999.0,96,0.00,,,-99.99,,2013-12-24 21:33:00,
2013-12-24 12:38:00,32.5,31.6,29.57,North,0,0.0,-999.0,96,0.00,,,-99.99,,2013-12-24 21:38:00,
2013-12-24 12:43:00,32.7,31.8,29.56,North,0,0.0,-999.0,96,0.00,,,-99.99,,2013-12-24 21:43:00,
2013-12-24 12:48:00,32.5,31.6,29.56,North,0,0.0,-999.0,96,0.00,,,-99.99,,2013-12-24 21:48:00,
2013-12-24 12:53:00,32.5,31.6,29.55,North,0,0.0,-999.0,96,0.00,,,-99.99,,2013-12-24 21:53:00,
2013-12-24 12:58:00,32.5,31.6,29.54,North,0,0.0,-999.0,96,0.00,,,-99.99,,2013-12-24 21:58:00,
2013-12-24 13:03:00,32.3,31.4,29.54,North,0,0.0,-999.0,96,0.00,,,-99.99,,2013-12-24 22:03:00,
2013-12-24 13:08:00,32.2,31.3,29.55,North,0,0.0,-999.0,96,0.00,,,-99.99,,2013-12-24 22:08:00,
2013-12-24 13:13:00,32.2,31.4,29.54,North,0,0.0,-999.0,96,0.00,,,-99.99,,2013-12-24 22:13:00,
2013-12-24 13:18:00,32.2,31.3,29.55,North,0,0.0,-999.0,96,0.00,,,-99.99,,2013-12-24 22:18:00,
2013-12-24 13:23:00,32.2,31.4,29.55,North,0,0.0,-999.0,96,0.00,,,-99.99,,2013-12-24 22:23:00,
2013-12-24 13:28:00,32.2,31.4,29.54,North,0,0.0,-999.0,96,0.00,,,-99.99,,2013-12-24 22:28:00,
2013-12-24 13:33:00,32.4,31.5,29.54,North,0,0.0,-999.0,96,0.00,,,-99.99,,2013-12-24 22:33:00,
2013-12-24 13:38:00,32.4,31.5,29.53,North,0,0.0,-999.0,96,0.00,,,-99.99,,2013-12-24 22:38:00,
2013-12-24 13:43:00,32.5,31.8,29.53,North,0,0.0,-999.0,96,0.00,,,-99.99,,2013-12-24 22:43:00,
2013-12-24 13:48:00,32.5,31.7,29.53,North,0,0.0,-999.0,96,0.00,,,-99.99,,2013-12-24 22:48:00,
2013-12-24 13:53:00,32.7,31.8,29.54,North,0,0.0,-999.0,96,0.00,,,-99.99,,2013-12-24 22:53:00,
2013-12-24 13:58:00,32.5,31.7,29.53,North,0,0.0,-999.0,96,0.00,,,-99.99,,2013-12-24 22:58:00,
2013-12-24 14:03:00,32.5,31.6,29.53,North,0,0.0,-999.0,96,0.00,,,-99.99,,2013-12-24 23:03:00,
2013-12-24 14:08:00,32.4,31.4,29.53,North,0,0.0,-999.0,96,0.00,,,-99.99,,2013-12-24 23:08:00,
2013-12-24 14:13:00,32.5,31.6,29.52,North,0,0.0,-999.0,96,0.00,,,-99.99,,2013-12-24 23:13:00,
2013-12-24 14:18:00,32.4,31.5,29.53,North,0,0.0,-999.0,96,0.00,,,-99.99,,2013-12-24 23:18:00,
2013-12-24 14:23:00,32.7,31.7,29.52,North,0,0.0,-999.0,96,0.00,,,-99.99,,2013-12-24 23:23:00,
2013-12-24 14:28:00,32.5,31.6,29.51,North,0,0.0,-999.0,96,0.00,,,-99.99,,2013-12-24 23:28:00,
2013-12-24 14:33:00,32.8,31.9,29.51,North,0,0.0,-999.0,96,0.00,,,-99.99,,2013-12-24 23:33:00,
2013-12-24 14:38:00,32.6,31.7,29.50,North,0,0.0,-999.0,96,0.00,,,-99.99,,2013-12-24 23:38:00,
2013-12-24 14:43:00,33.0,32.2,29.50,North,0,0.0,-999.0,96,0.00,,,-99.99,,2013-12-24 23:43:00,
2013-12-24 14:48:00,32.8,31.9,29.50,North,0,0.0,-999.0,96,0.00,,,-99.99,,2013-12-24 23:48:00,
2013-12-24 14:53:00,33.0,32.1,29.51,North,0,0.0,-999.0,96,0.00,,,-99.99,,2013-12-24 23:53:00,
2013-12-24 14:58:00,33.0,32.1,29.50,North,0,0.0,-999.0,96,0.00,,,-99.99,,2013-12-24 23:58:00,
2013-12-24 15:03:00,32.8,32.0,29.50,North,0,0.0,-999.0,96,0.00,,,-99.99,,2013-12-25 00:03:00,
2013-12-24 15:08:00,32.7,31.7,29.50,North,0,0.0,-999.0,96,0.00,,,-99.99,,2013-12-25 00:08:00,
2013-12-24 15:13:00,32.6,31.7,29.50,North,0,0.0,-999.0,96,0.00,,,-99.99,,2013-12-25 00:13:00,
2013-12-24 15:18:00,32.5,31.7,29.49,North,0,0.0,-999.0,96,0.00,,,-99.99,,2013-12-25 00:18:00,
2013-12-24 15:23:00,32.4,31.5,29.50,North,0,0.0,-999.0,96,0.00,,,-99.99,,2013-12-25 00:23:00,
2013-12-24 15:28:00,32.5,31.6,29.49,North,0,0.0,-999.0,96,0.00,,,-99.99,,2013-12-25 00:28:00,
2013-12-24 15:33:00,32.5,31.7,29.49,North,0,0.0,-999.0,96,0.00,,,-99.99,,2013-12-25 00:33:00,
2013-12-24 15:38:00,32.2,31.5,29.49,North,0,0.0,-999.0,96,0.00,,,-99.99,,2013-12-25 00:38:00,
2013-12-24 15:43:00,32.5,31.7,29.48,North,0,0.0,-999.0,96,0.00,,,-99.99,,2013-12-25 00:43:00,
2013-12-24 15:48:00,32.1,31.3,29.48,North,0,0.0,-999.0,96,0.00,,,-99.99,,2013-12-25 00:48:00,
2013-12-24 15:53:00,32.5,31.8,29.48,North,0,0.0,-999.0,96,0.00,,,-99.99,,2013-12-25 00:53:00,
2013-12-24 15:58:00,32.5,31.8,29.48,North,0,0.0,-999.0,96,0.00,,,-99.99,,2013-12-25 00:58:00,
2013-12-24 16:03:00,32.4,31.6,29.48,North,0,0.0,-999.0,96,0.00,,,-99.99,,2013-12-25 01:03:00,
2013-12-24 16:08:00,32.7,31.9,29.48,North,0,0.0,-999.0,96,0.00,,,-99.99,,2013-12-25 01:08:00,
2013-12-24 16:13:00,32.4,31.6,29.48,North,0,0.0,-999.0,96,0.00,,,-99.99,,2013-12-25 01:13:00,
2013-12-24 16:18:00,32.6,31.8,29.48,North,0,0.0,-999.0,96,0.00,,,-99.99,,2013-12-25 01:18:00,
2013-12-24 16:23:00,32.4,31.6,29.48,North,0,0.0,-999.0,96,0.00,,,-99.99,,2013-12-25 01:23:00,
2013-12-24 16:28:00,32.4,31.7,29.48,North,0,0.0,-999.0,96,0.00,,,-99.99,,2013-12-25 01:28:00,
2013-12-24 16:33:00,32.3,31.5,29.47,North,0,0.0,-999.0,96,0.00,,,-99.99,,2013-12-25 01:33:00,
2013-12-24 16:38:00,32.2,31.5,29.48,North,0,0.0,-999.0,97,0.00,,,-99.99,,2013-12-25 01:38:00,
2013-12-24 16:43:00,32.1,31.4,29.47,North,0,0.0,-999.0,97,0.00,,,-99.99,,2013-12-25 01:43:00,
2013-12-24 16:48:00,32.0,31.4,29.47,North,0,0.0,-999.0,97,0.00,,,-99.99,,2013-12-25 01:48:00,
2013-12-24 16:53:00,32.0,31.4,29.47,North,0,0.0,-999.0,97,0.00,,,-99.99,,2013-12-25 01:53:00,
2013-12-24 16:58:00,32.0,31.3,29.47,North,0,0.0,-999.0,97,0.00,,,-99.99,,2013-12-25 01:58:00,
2013-12-24 17:03:00,32.3,31.7,29.47,North,0,0.0,-999.0,97,0.00,,,-99.99,,2013-12-25 02:03:00,
2013-12-24 17:08:00,32.2,31.6,29.47,North,0,0.0,-999.0,97,0.00,,,-99.99,,2013-12-25 02:08:00,
2013-12-24 17:13:00,32.1,31.5,29.47,North,0,0.0,-999.0,97,0.00,,,-99.99,,2013-12-25 02:13:00,
2013-12-24 17:18:00,32.0,31.4,29.46,North,0,0.0,-999.0,97,0.00,,,-99.99,,2013-12-25 02:18:00,
2013-12-24 17:23:00,31.9,31.3,29.47,North,0,0.0,-999.0,97,0.00,,,-99.99,,2013-12-25 02:23:00,
2013-12-24 17:28:00,31.8,31.2,29.46,North,0,0.0,-999.0,97,0.00,,,-99.99,,2013-12-25 02:28:00,
2013-12-24 17:33:00,31.7,31.2,29.47,North,0,0.0,-999.0,97,0.00,,,-99.99,,2013-12-25 02:33:00,
2013-12-24 17:38:00,31.9,31.3,29.47,North,0,0.0,-999.0,97,0.00,,,-99.99,,2013-12-25 02:38:00,
2013-12-24 17:43:00,31.9,31.3,29.45,North,0,0.0,-999.0,97,0.00,,,-99.99,,2013-12-25 02:43:00,
2013-12-24 17:48:00,31.7,31.2,29.46,North,0,0.0,-999.0,97,0.00,,,-99.99,,2013-12-25 02:48:00,
2013-12-24 17:53:00,31.7,31.2,29.46,North,0,0.0,-999.0,97,0.00,,,-99.99,,2013-12-25 02:53:00,
2013-12-24 17:58:00,31.9,31.4,29.45,North,0,0.0,-999.0,97,0.00,,,-99.99,,2013-12-25 02:58:00,
2013-12-24 18:03:00,31.9,31.4,29.45,North,0,0.0,-999.0,97,0.00,,,-99.99,,2013-12-25 03:03:00,
2013-12-24 18:08:00,31.9,31.4,29.46,North,0,0.0,-999.0,97,0.00,,,-99.99,,2013-12-25 03:08:00,
2013-12-24 18:13:00,31.9,31.4,29.45,North,0,0.0,-999.0,97,0.00,,,-99.99,,2013-12-25 03:13:00,
2013-12-24 18:18:00,32.0,31.5,29.46,North,0,0.0,-999.0,97,0.00,,,-99.99,,2013-12-25 03:18:00,
2013-12-24 18:23:00,32.0,31.5,29.46,North,0,0.0,-999.0,97,0.00,,,-99.99,,2013-12-25 03:23:00,
2013-12-24 18:28:00,32.0,31.5,29.45,North,0,0.0,-999.0,97,0.00,,,-99.99,,2013-12-25 03:28:00,
2013-12-24 18:33:00,31.8,31.2,29.45,North,0,0.0,-999.0,97,0.00,,,-99.99,,2013-12-25 03:33:00,
2013-12-24 18:38:00,32.0,31.5,29.46,North,0,0.0,-999.0,97,0.00,,,-99.99,,2013-12-25 03:38:00,
2013-12-24 18:43:00,32.1,31.5,29.47,North,0,0.0,-999.0,97,0.00,,,-99.99,,2013-12-25 03:43:00,
2013-12-24 18:48:00,32.3,31.8,29.46,North,0,0.0,-999.0,97,0.00,,,-99.99,,2013-12-25 03:48:00,
2013-12-24 18:53:00,32.2,31.6,29.45,North,0,0.0,-999.0,97,0.00,,,-99.99,,2013-12-25 03:53:00,
2013-12-24 18:58:00,32.2,31.6,29.45,North,0,0.0,-999.0,97,0.00,,,-99.99,,2013-12-25 03:58:00,
2013-12-24 19:02:00,31.1,30.6,29.46,North,0,0.0,-999.0,98,0.00,,,-99.99,,2013-12-25 04:02:00,
2013-12-24 19:03:00,31.7,31.1,29.47,North,0,0.0,-999.0,97,0.00,,,-99.99,,2013-12-25 04:03:00,
2013-12-24 19:04:00,30.9,30.4,29.46,North,0,0.0,-999.0,98,0.00,,,-99.99,,2013-12-25 04:04:00,
2013-12-24 19:05:00,30.9,30.4,29.45,North,0,0.0,-999.0,98,0.00,,,-99.99,,2013-12-25 04:05:00,
2013-12-24 19:06:00,31.1,30.6,29.45,North,0,0.0,-999.0,98,0.00,,,-99.99,,2013-12-25 04:06:00,
2013-12-24 19:07:00,31.0,30.5,29.45,North,0,0.0,-999.0,98,0.00,,,-99.99,,2013-12-25 04:07:00,
2013-12-24 19:08:00,31.7,31.2,29.46,North,0,0.0,-999.0,97,0.00,,,-99.99,,2013-12-25 04:08:00,
2013-12-24 19:09:00,31.0,30.5,29.45,North,0,0.0,-999.0,98,0.00,,,-99.99,,2013-12-25 04:09:00,
2013-12-24 19:10:00,31.0,30.5,29.46,North,0,0.0,-999.0,98,0.00,,,-99.99,,2013-12-25 04:10:00,
2013-12-24 19:11:00,31.1,30.6,29.46,North,0,0.0,-999.0,98,0.00,,,-99.99,,2013-12-25 04:11:00,
2013-12-24 19:12:00,31.1,30.6,29.46,North,0,0.0,-999.0,97,0.00,,,-99.99,,2013-12-25 04:12:00,
2013-12-24 19:13:00,31.6,31.1,29.45,North,0,0.0,-999.0,97,0.00,,,-99.99,,2013-12-25 04:13:00,
2013-12-24 19:14:00,30.8,30.3,29.46,North,0,0.0,-999.0,97,0.00,,,-99.99,,2013-12-25 04:14:00,
2013-12-24 19:15:00,31.0,30.4,29.44,North,0,0.0,-999.0,97,0.00,,,-99.99,,2013-12-25 04:15:00,
2013-12-24 19:16:00,30.8,30.3,29.44,North,0,0.0,-999.0,97,0.00,,,-99.99,,2013-12-25 04:16:00,
2013-12-24 19:17:00,30.7,30.2,29.44,North,0,0.0,-999.0,97,0.00,,,-99.99,,2013-12-25 04:17:00,
2013-12-24 19:18:00,31.6,31.1,29.45,North,0,0.0,-999.0,97,0.00,,,-99.99,,2013-12-25 04:18:00,
2013-12-24 19:19:00,30.8,30.3,29.44,North,0,0.0,-999.0,97,0.00,,,-99.99,,2013-12-25 04:19:00,
2013-12-24 19:20:00,30.7,30.2,29.45,North,0,0.0,-999.0,97,0.00,,,-99.99,,2013-12-25 04:20:00,
2013-12-24 19:21:00,30.4,29.9,29.45,North,0,0.0,-999.0,97,0.00,,,-99.99,,2013-12-25 04:21:00,
2013-12-24 19:22:00,30.5,29.9,29.45,North,0,0.0,-999.0,97,0.00,,,-99.99,,2013-12-25 04:22:00,
2013-12-24 19:23:00,31.7,31.2,29.45,North,0,0.0,-999.0,97,0.00,,,-99.99,,2013-12-25 04:23:00,
2013-12-24 19:24:00,30.7,30.2,29.45,North,0,0.0,-999.0,97,0.00,,,-99.99,,2013-12-25 04:24:00,
2013-12-24 19:25:00,30.5,29.9,29.46,North,0,0.0,-999.0,97,0.00,,,-99.99,,2013-12-25 04:25:00,
2013-12-24 19:26:00,30.3,29.7,29.46,North,0,0.0,-999.0,97,0.00,,,-99.99,,2013-12-25 04:26:00,
2013-12-24 19:27:00,30.5,29.9,29.46,North,0,0.0,-999.0,97,0.00,,,-99.99,,2013-12-25 04:27:00,
2013-12-24 19:28:00,31.7,31.2,29.46,North,0,0.0,-999.0,97,0.00,,,-99.99,,2013-12-25 04:28:00,
2013-12-24 19:29:00,30.5,29.9,29.46,North,0,0.0,-999.0,97,0.00,,,-99.99,,2013-12-25 04:29:00,
2013-12-24 19:30:00,30.3,29.8,29.46,North,0,0.0,-999.0,97,0.00,,,-99.99,,2013-12-25 04:30:00,
2013-12-24 19:31:00,30.3,29.8,29.46,North,0,0.0,-999.0,97,0.00,,,-99.99,,2013-12-25 04:31:00,
2013-12-24 19:32:00,30.3,29.7,29.46,North,0,0.0,-999.0,97,0.00,,,-99.99,,2013-12-25 04:32:00,
2013-12-24 19:33:00,31.6,31.0,29.45,North,0,0.0,-999.0,97,0.00,,,-99.99,,2013-12-25 04:33:00,
2013-12-24 19:34:00,30.0,29.5,29.46,North,0,0.0,-999.0,97,0.00,,,-99.99,,2013-12-25 04:34:00,
2013-12-24 19:35:00,30.1,29.6,29.46,North,0,0.0,-999.0,97,0.00,,,-99.99,,2013-12-25 04:35:00,
2013-12-24 19:36:00,30.1,29.6,29.46,North,0,0.0,-999.0,97,0.00,,,-99.99,,2013-12-25 04:36:00,
2013-12-24 19:37:00,30.1,29.6,29.46,North,0,0.0,-999.0,97,0.00,,,-99.99,,2013-12-25 04:37:00,
2013-12-24 19:38:00,31.5,31.0,29.45,North,0,0.0,-999.0,97,0.00,,,-99.99,,2013-12-25 04:38:00,
2013-12-24 19:39:00,30.2,29.6,29.46,North,0,0.0,-999.0,97,0.00,,,-99.99,,2013-12-25 04:39:00,
2013-12-24 19:40:00,29.9,29.3,29.45,North,0,0.0,-999.0,97,0.00,,,-99.99,,2013-12-25 04:40:00,
2013-12-24 19:41:00,30.0,29.4,29.45,North,0,0.0,-999.0,97,0.00,,,-99.99,,2013-12-25 04:41:00,
2013-12-24 19:42:00,29.8,29.2,29.45,North,0,0.0,-999.0,97,0.00,,,-99.99,,2013-12-25 04:42:00,
2013-12-24 19:43:00,31.3,30.8,29.45,North,0,0.0,-999.0,97,0.00,,,-99.99,,2013-12-25 04:43:00,
2013-12-24 19:44:00,29.8,29.3,29.45,North,0,0.0,-999.0,97,0.00,,,-99.99,,2013-12-25 04:44:00,
2013-12-24 19:45:00,30.0,29.4,29.46,North,0,0.0,-999.0,97,0.00,,,-99.99,,2013-12-25 04:45:00,
2013-12-24 19:46:00,29.8,29.2,29.46,North,0,0.0,-999.0,97,0.00,,,-99.99,,2013-12-25 04:46:00,
2013-12-24 19:47:00,29.8,29.2,29.46,North,0,0.0,-999.0,97,0.00,,,-99.99,,2013-12-25 04:47:00,
2013-12-24 19:48:00,31.2,30.7,29.45,North,0,0.0,-999.0,97,0.00,,,-99.99,,2013-12-25 04:48:00,
2013-12-24 19:49:00,29.7,29.1,29.46,North,0,0.0,-999.0,97,0.00,,,-99.99,,2013-12-25 04:49:00,
2013-12-24 19:50:00,29.9,29.3,29.47,North,0,0.0,-999.0,97,0.00,,,-99.99,,2013-12-25 04:50:00,
2013-12-24 19:51:00,29.8,29.2,29.47,North,0,0.0,-999.0,97,0.00,,,-99.99,,2013-12-25 04:51:00,
2013-12-24 19:52:00,29.8,29.2,29.47,North,0,0.0,-999.0,97,0.00,,,-99.99,,2013-12-25 04:52:00,
2013-12-24 19:53:00,31.2,30.7,29.45,North,0,0.0,-999.0,98,0.00,,,-99.99,,2013-12-25 04:53:00,
2013-12-24 19:54:00,29.7,29.1,29.47,North,0,0.0,-999.0,97,0.00,,,-99.99,,2013-12-25 04:54:00,
2013-12-24 19:55:00,29.5,28.9,29.46,North,0,0.0,-999.0,97,0.00,,,-99.99,,2013-12-25 04:55:00,
2013-12-24 19:56:00,29.7,29.1,29.46,North,0,0.0,-999.0,97,0.00,,,-99.99,,2013-12-25 04:56:00,
2013-12-24 19:57:00,29.7,29.2,29.46,North,0,0.0,-999.0,97,0.00,,,-99.99,,2013-12-25 04:57:00,
2013-12-24 19:58:00,31.2,30.7,29.46,North,0,0.0,-999.0,97,0.00,,,-99.99,,2013-12-25 04:58:00,
2013-12-24 19:59:00,29.8,29.3,29.46,North,0,0.0,-999.0,97,0.00,,,-99.99,,2013-12-25 04:59:00,
2013-12-24 20:00:00,29.6,29.1,29.46,North,0,0.0,-999.0,97,0.00,,,-99.99,,2013-12-25 05:00:00,
2013-12-24 20:01:00,29.4,28.9,29.46,North,0,0.0,-999.0,97,0.00,,,-99.99,,2013-12-25 05:01:00,
2013-12-24 20:02:00,29.7,29.1,29.46,North,0,0.0,-999.0,97,0.00,,,-99.99,,2013-12-25 05:02:00,
2013-12-24 20:03:00,29.4,28.9,29.46,North,0,0.0,-999.0,97,0.00,,,-99.99,,2013-12-25 05:03:00,
2013-12-24 20:04:00,29.6,29.1,29.46,North,0,0.0,-999.0,97,0.00,,,-99.99,,2013-12-25 05:04:00,
2013-12-24 20:05:00,29.6,29.1,29.45,North,0,0.0,-999.0,97,0.00,,,-99.99,,2013-12-25 05:05:00,
2013-12-24 20:06:00,29.6,29.1,29.45,North,0,0.0,-999.0,97,0.00,,,-99.99,,2013-12-25 05:06:00,
2013-12-24 20:07:00,29.5,29.0,29.45,North,0,0.0,-999.0,97,0.00,,,-99.99,,2013-12-25 05:07:00,
2013-12-24 20:08:00,29.5,29.0,29.45,North,0,0.0,-999.0,98,0.00,,,-99.99,,2013-12-25 05:08:00,
2013-12-24 20:09:00,29.4,28.9,29.45,North,0,0.0,-999.0,97,0.00,,,-99.99,,2013-12-25 05:09:00,
2013-12-24 20:10:00,29.5,29.0,29.46,North,0,0.0,-999.0,97,0.00,,,-99.99,,2013-12-25 05:10:00,
2013-12-24 20:11:00,29.6,29.1,29.46,North,0,0.0,-999.0,98,0.00,,,-99.99,,2013-12-25 05:11:00,
2013-12-24 20:12:00,29.4,28.9,29.46,North,0,0.0,-999.0,98,0.00,,,-99.99,,2013-12-25 05:12:00,
2013-12-24 20:14:00,29.6,29.1,29.46,North,0,0.0,-999.0,98,0.00,,,-99.99,,2013-12-25 05:14:00,
2013-12-24 20:15:00,29.3,28.8,29.46,North,0,0.0,-999.0,98,0.00,,,-99.99,,2013-12-25 05:15:00,
2013-12-24 20:17:00,29.6,29.1,29.46,North,0,0.0,-999.0,98,0.00,,,-99.99,,2013-12-25 05:17:00,
2013-12-24 20:18:00,29.5,29.0,29.46,North,0,0.0,-999.0,98,0.00,,,-99.99,,2013-12-25 05:18:00,
2013-12-24 20:19:00,29.4,29.0,29.46,North,0,0.0,-999.0,98,0.00,,,-99.99,,2013-12-25 05:19:00,
2013-12-24 20:20:00,29.3,28.8,29.45,North,0,0.0,-999.0,98,0.00,,,-99.99,,2013-12-25 05:20:00,
2013-12-24 20:21:00,29.3,28.8,29.45,North,0,0.0,-999.0,98,0.00,,,-99.99,,2013-12-25 05:21:00,
2013-12-24 20:22:00,29.4,28.9,29.45,North,0,0.0,-999.0,98,0.00,,,-99.99,,2013-12-25 05:22:00,
2013-12-24 20:23:00,29.4,28.9,29.45,North,0,0.0,-999.0,98,0.00,,,-99.99,,2013-12-25 05:23:00,
2013-12-24 20:24:00,29.3,28.8,29.45,North,0,0.0,-999.0,98,0.00,,,-99.99,,2013-12-25 05:24:00,
2013-12-24 20:27:00,29.6,29.1,29.46,North,0,0.0,-999.0,98,0.00,,,-99.99,,2013-12-25 05:27:00,
2013-12-24 20:28:00,29.6,29.1,29.46,North,0,0.0,-999.0,98,0.00,,,-99.99,,2013-12-25 05:28:00,
2013-12-24 20:29:00,29.6,29.1,29.46,North,0,0.0,-999.0,98,0.00,,,-99.99,,2013-12-25 05:29:00,
2013-12-24 20:30:00,29.7,29.2,29.46,North,0,0.0,-999.0,98,0.00,,,-99.99,,2013-12-25 05:30:00,
2013-12-24 20:31:00,29.7,29.3,29.46,North,0,0.0,-999.0,98,0.00,,,-99.99,,2013-12-25 05:31:00,
2013-12-24 20:32:00,29.5,29.1,29.46,North,0,0.0,-999.0,98,0.00,,,-99.99,,2013-12-25 05:32:00,
2013-12-24 20:33:00,29.7,29.2,29.46,North,0,0.0,-999.0,98,0.00,,,-99.99,,2013-12-25 05:33:00,
2013-12-24 20:34:00,29.8,29.3,29.46,North,0,0.0,-999.0,98,0.00,,,-99.99,,2013-12-25 05:34:00,
2013-12-24 20:37:00,29.8,29.4,29.47,North,0,0.0,-999.0,98,0.00,,,-99.99,,2013-12-25 05:37:00,
2013-12-24 20:39:00,29.7,29.2,29.47,North,0,0.0,-999.0,98,0.00,,,-99.99,,2013-12-25 05:39:00,
2013-12-24 20:40:00,29.5,29.1,29.47,North,0,0.0,-999.0,98,0.00,,,-99.99,,2013-12-25 05:40:00,
2013-12-24 20:42:00,29.6,29.1,29.47,North,0,0.0,-999.0,98,0.00,,,-99.99,,2013-12-25 05:42:00,
2013-12-24 20:44:00,29.5,29.1,29.47,North,0,0.0,-999.0,98,0.00,,,-99.99,,2013-12-25 05:44:00,
2013-12-24 20:46:00,29.7,29.2,29.46,North,0,0.0,-999.0,98,0.00,,,-99.99,,2013-12-25 05:46:00,
2013-12-24 20:47:00,29.6,29.1,29.46,North,0,0.0,-999.0,98,0.00,,,-99.99,,2013-12-25 05:47:00,
2013-12-24 20:50:00,29.7,29.3,29.46,North,0,0.0,-999.0,98,0.00,,,-99.99,,2013-12-25 05:50:00,
2013-12-24 20:54:00,29.8,29.4,29.46,North,0,0.0,-999.0,98,0.00,,,-99.99,,2013-12-25 05:54:00,
2013-12-24 20:55:00,30.0,29.5,29.47,North,0,0.0,-999.0,98,0.00,,,-99.99,,2013-12-25 05:55:00,
2013-12-24 20:57:00,29.9,29.5,29.47,North,0,0.0,-999.0,98,0.00,,,-99.99,,2013-12-25 05:57:00,
2013-12-24 20:59:00,30.0,29.6,29.47,North,0,0.0,-999.0,98,0.00,,,-99.99,,2013-12-25 05:59:00,
2013-12-24 21:01:00,29.9,29.5,29.47,North,0,0.0,-999.0,98,0.00,,,-99.99,,2013-12-25 06:01:00,
2013-12-24 21:03:00,30.0,29.5,29.47,North,0,0.0,-999.0,98,0.00,,,-99.99,,2013-12-25 06:03:00,
2013-12-24 21:04:00,29.8,29.3,29.47,North,0,0.0,-999.0,98,0.00,,,-99.99,,2013-12-25 06:04:00,
2013-12-24 21:07:00,30.0,29.6,29.47,North,0,0.0,-999.0,98,0.00,,,-99.99,,2013-12-25 06:07:00,
2013-12-24 21:08:00,29.8,29.4,29.47,North,0,0.0,-999.0,98,0.00,,,-99.99,,2013-12-25 06:08:00,
2013-12-24 21:10:00,30.1,29.6,29.47,North,0,0.0,-999.0,98,0.00,,,-99.99,,2013-12-25 06:10:00,
2013-12-24 21:11:00,29.9,29.4,29.47,North,0,0.0,-999.0,98,0.00,,,-99.99,,2013-12-25 06:11:00,
2013-12-24 21:12:00,30.0,29.6,29.47,North,0,0.0,-999.0,98,0.00,,,-99.99,,2013-12-25 06:12:00,
2013-12-24 21:13:00,29.6,29.1,29.46,North,0,0.0,-999.0,98,0.00,,,-99.99,,2013-12-25 06:13:00,
2013-12-24 21:16:00,30.1,29.6,29.47,North,0,0.0,-999.0,98,0.00,,,-99.99,,2013-12-25 06:16:00,
2013-12-24 21:19:00,30.2,29.8,29.47,North,0,0.0,-999.0,98,0.00,,,-99.99,,2013-12-25 06:19:00,
2013-12-24 21:20:00,30.1,29.6,29.48,North,0,0.0,-999.0,98,0.00,,,-99.99,,2013-12-25 06:20:00,
2013-12-24 21:22:00,30.0,29.6,29.48,North,0,0.0,-999.0,98,0.00,,,-99.99,,2013-12-25 06:22:00,
2013-12-24 21:23:00,30.1,29.7,29.48,North,0,0.0,-999.0,98,0.00,,,-99.99,,2013-12-25 06:23:00,
2013-12-24 21:25:00,29.4,28.9,29.46,North,0,0.0,-999.0,98,0.00,,,-99.99,,2013-12-25 06:25:00,
2013-12-24 21:26:00,30.2,29.7,29.47,North,0,0.0,-999.0,98,0.00,,,-99.99,,2013-12-25 06:26:00,
2013-12-24 21:27:00,29.9,29.4,29.47,North,0,0.0,-999.0,98,0.00,,,-99.99,,2013-12-25 06:27:00,
2013-12-24 21:31:00,29.8,29.3,29.47,North,0,0.0,-999.0,98,0.00,,,-99.99,,2013-12-25 06:31:00,
2013-12-24 21:32:00,29.9,29.4,29.47,North,0,0.0,-999.0,98,0.00,,,-99.99,,2013-12-25 06:32:00,
2013-12-24 21:35:00,29.9,29.5,29.47,North,0,0.0,-999.0,98,0.00,,,-99.99,,2013-12-25 06:35:00,
2013-12-24 21:41:00,29.7,29.2,29.47,North,0,0.0,-999.0,98,0.00,,,-99.99,,2013-12-25 06:41:00,
2013-12-24 21:43:00,29.8,29.4,29.48,North,0,0.0,-999.0,98,0.00,,,-99.99,,2013-12-25 06:43:00,
2013-12-24 21:45:00,29.8,29.4,29.47,North,0,0.0,-999.0,98,0.00,,,-99.99,,2013-12-25 06:45:00,
2013-12-24 21:48:00,29.6,29.1,29.46,North,0,0.0,-999.0,98,0.00,,,-99.99,,2013-12-25 06:48:00,
2013-12-24 21:50:00,30.0,29.5,29.47,North,0,0.0,-999.0,98,0.00,,,-99.99,,2013-12-25 06:50:00,
2013-12-24 21:51:00,29.8,29.4,29.47,North,0,0.0,-999.0,98,0.00,,,-99.99,,2013-12-25 06:51:00,
2013-12-24 21:52:00,30.0,29.5,29.47,North,0,0.0,-999.0,98,0.00,,,-99.99,,2013-12-25 06:52:00,
2013-12-24 21:53:00,29.8,29.3,29.46,North,0,0.0,-999.0,98,0.00,,,-99.99,,2013-12-25 06:53:00,
2013-12-24 21:55:00,29.9,29.4,29.49,North,0,0.0,-999.0,98,0.00,,,-99.99,,2013-12-25 06:55:00,
2013-12-24 21:58:00,30.1,29.6,29.47,North,0,0.0,-999.0,98,0.00,,,-99.99,,2013-12-25 06:58:00,
2013-12-24 21:59:00,30.0,29.5,29.49,North,0,0.0,-999.0,97,0.00,,,-99.99,,2013-12-25 06:59:00,
2013-12-24 22:02:00,29.8,29.3,29.48,North,0,0.0,-999.0,97,0.00,,,-99.99,,2013-12-25 07:02:00,
2013-12-24 22:03:00,29.7,29.2,29.48,North,0,0.0,-999.0,98,0.00,,,-99.99,,2013-12-25 07:03:00,
2013-12-24 22:05:00,30.0,29.5,29.47,North,0,0.0,-999.0,98,0.00,,,-99.99,,2013-12-25 07:05:00,
2013-12-24 22:10:00,29.7,29.2,29.48,North,0,0.0,-999.0,98,0.00,,,-99.99,,2013-12-25 07:10:00,
2013-12-24 22:13:00,29.9,29.5,29.47,North,0,0.0,-999.0,98,0.00,,,-99.99,,2013-12-25 07:13:00,
2013-12-24 22:14:00,29.7,29.2,29.48,North,0,0.0,-999.0,97,0.00,,,-99.99,,2013-12-25 07:14:00,
2013-12-24 22:18:00,29.8,29.4,29.47,North,0,0.0,-999.0,98,0.00,,,-99.99,,2013-12-25 07:18:00,
2013-12-24 22:20:00,29.5,29.0,29.47,North,0,0.0,-999.0,97,0.00,,,-99.99,,2013-12-25 07:20:00,
2013-12-24 22:23:00,29.5,29.0,29.47,North,0,0.0,-999.0,97,0.00,,,-99.99,,2013-12-25 07:23:00,
2013-12-24 22:24:00,30.0,29.5,29.48,North,0,0.0,-999.0,98,0.00,,,-99.99,,2013-12-25 07:24:00,
2013-12-24 22:29:00,30.0,29.5,29.47,North,0,0.0,-999.0,98,0.00,,,-99.99,,2013-12-25 07:29:00,
2013-12-24 22:33:00,29.4,28.9,29.49,North,0,0.0,-999.0,97,0.00,,,-99.99,,2013-12-25 07:33:00,
2013-12-24 22:34:00,30.0,29.5,29.47,North,0,0.0,-999.0,98,0.00,,,-99.99,,2013-12-25 07:34:00,
2013-12-24 22:37:00,29.4,28.9,29.49,North,0,0.0,-999.0,97,0.00,,,-99.99,,2013-12-25 07:37:00,
2013-12-24 22:38:00,29.5,29.0,29.49,North,0,0.0,-999.0,97,0.00,,,-99.99,,2013-12-25 07:38:00,
2013-12-24 22:39:00,30.0,29.6,29.48,North,0,0.0,-999.0,98,0.00,,,-99.99,,2013-12-25 07:39:00,
2013-12-24 22:42:00,29.4,28.8,29.50,North,0,0.0,-999.0,97,0.00,,,-99.99,,2013-12-25 07:42:00,
2013-12-24 22:44:00,30.0,29.5,29.48,North,0,0.0,-999.0,98,0.00,,,-99.99,,2013-12-25 07:44:00,
2013-12-24 22:48:00,29.1,28.6,29.49,North,0,0.0,-999.0,97,0.00,,,-99.99,,2013-12-25 07:48:00,
2013-12-24 22:49:00,30.0,29.5,29.47,North,0,0.0,-999.0,98,0.00,,,-99.99,,2013-12-25 07:49:00,
2013-12-24 22:51:00,29.4,28.9,29.50,North,0,0.0,-999.0,97,0.00,,,-99.99,,2013-12-25 07:51:00,
2013-12-24 22:54:00,29.9,29.4,29.47,North,0,0.0,-999.0,98,0.00,,,-99.99,,2013-12-25 07:54:00,
2013-12-24 23:00:00,29.7,29.1,29.48,North,0,0.0,-999.0,97,0.00,,,-99.99,,2013-12-25 08:00:00,
2013-12-24 23:05:00,29.8,29.4,29.48,North,0,0.0,-999.0,98,0.00,,,-99.99,,2013-12-25 08:05:00,
2013-12-24 23:11:00,29.8,29.4,29.48,North,0,0.0,-999.0,98,0.00,,,-99.99,,2013-12-25 08:11:00,
2013-12-24 23:16:00,29.7,29.1,29.48,North,0,0.0,-999.0,97,0.00,,,-99.99,,2013-12-25 08:16:00,
2013-12-24 23:21:00,29.5,28.9,29.47,North,0,0.0,-999.0,97,0.00,,,-99.99,,2013-12-25 08:21:00,
2013-12-24 23:26:00,29.5,29.0,29.48,North,0,0.0,-999.0,97,0.00,,,-99.99,,2013-12-25 08:26:00,
2013-12-24 23:31:00,29.4,28.9,29.49,North,0,0.0,-999.0,97,0.00,,,-99.99,,2013-12-25 08:31:00,
2013-12-24 23:36:00,29.5,29.0,29.49,North,0,0.0,-999.0,97,0.00,,,-99.99,,2013-12-25 08:36:00,
2013-12-24 23:41:00,29.3,28.8,29.50,North,0,0.0,-999.0,97,0.00,,,-99.99,,2013-12-25 08:41:00,
2013-12-24 23:46:00,29.2,28.7,29.49,North,0,0.0,-999.0,97,0.00,,,-99.99,,2013-12-25 08:46:00,
2013-12-24 23:52:00,29.3,28.8,29.50,North,0,0.0,-999.0,97,0.00,,,-99.99,,2013-12-25 08:52:00,
2013-12-24 23:57:00,29.0,28.5,29.49,North,0,0.0,-999.0,97,0.00,,,-99.99,,2013-12-25 08:57:00,